Terminal Aerodrome Forecast
Issued by NWS

Home | Current Version | Previous Version | Text Only | Print | Product List | Glossary On
Versions: 1 2 3 4 5 6 7 8 9 10 11 12 13 14 15 16 17 18 19 20
000
FTPQ31 PGUM 232027 RRP
TAFGRO
TAF
PGRO 232027Z 2320/2418 22010G20KT P6SM VCSH SCT011 BKN080
     FM240100 23012G22KT P6SM VCSH SCT012 SCT030 BKN120
     FM240800 22010KT P6SM VCSH SCT015 BKN120=

USA.gov is the U.S. government's official web portal to all federal, state and local government web resources and services.